Cormorant, Canada
Current Conditions -  °F | °C
As of 7:00 AM on Tuesday 21 Oct 2014 (Local Time) from CYQD Reporting Station
Clear Clear  
Wind Chill: 33°   Ceiling: Unl
Heat Index: 41°   Visibility: 15mi
Dew Point: 39°   Wind: 15mph
Humidity: 93%   Direction: 150°SSE
Pressure: 29.67"   Gusts: NA
Location:  54.23°N, 100.6°W
Report Text: CYQD 211200Z 15013KT 15SM SKC 05/04 A2967 RMK SLP057
Loading
Personal Weather Stations






























Interactive Weather Map
Tropical Storm Tracking
New forecast layout! Learn more

10-Day Weather Forecast

Advertisements
Track Severe Weather on mobile